Time;durP1;ratioP1;P1;durP2;ratioP2;P2;SDS_P1;SDS_P2;PMS_P1;PMS_P2;Temp;Humidity;BMP_temperature;BMP_pressure;BME280_temperature;BME280_humidity;BME280_pressure;Samples;Min_cycle;Max_cycle;Signal;HPM_P1;HPM_P2
2023/02/18 00:00:12;;;;;;;;;13.33;11.00;;;;;-147.17;100.00;-15917.19;5023240;28;51183;-58
2023/02/18 00:02:37;;;;;;;;;12.50;12.50;;;;;-147.17;100.00;-15917.19;5026687;28;51063;-58
2023/02/18 00:05:03;;;;;;;;;9.33;9.33;;;;;-147.17;100.00;-15917.19;5029134;28;51151;-62
2023/02/18 00:07:34;;;;;;;;;9.67;8.67;;;;;-147.17;100.00;-15917.19;5027990;28;51152;-57
2023/02/18 00:09:59;;;;;;;;;11.67;10.67;;;;;-147.17;100.00;-15917.19;5028742;28;51267;-57
2023/02/18 00:12:25;;;;;;;;;9.67;9.67;;;;;-147.17;100.00;-15917.19;5029190;28;51372;-57
2023/02/18 00:14:50;;;;;;;;;15.50;15.25;;;;;-147.17;100.00;-15917.19;5009042;28;51268;-57
2023/02/18 00:17:15;;;;;;;;;13.00;12.25;;;;;-147.17;100.00;-15917.19;5023972;28;51226;-59
2023/02/18 00:19:41;;;;;;;;;8.00;7.33;;;;;-147.17;100.00;-15917.19;5027791;28;51092;-57
2023/02/18 00:22:06;;;;;;;;;10.33;10.00;;;;;-147.17;100.00;-15917.19;5014147;28;51144;-56
2023/02/18 00:24:31;;;;;;;;;9.33;9.00;;;;;-147.17;100.00;-15917.19;5027169;28;51944;-57
2023/02/18 00:26:57;;;;;;;;;8.67;8.00;;;;;-147.17;100.00;-15917.19;5026224;28;52002;-57
2023/02/18 00:29:22;;;;;;;;;10.00;10.00;;;;;-147.17;100.00;-15917.19;5014020;28;51322;-59
2023/02/18 00:31:47;;;;;;;;;11.00;11.00;;;;;-147.17;100.00;-15917.19;5019192;28;51019;-58
2023/02/18 00:34:13;;;;;;;;;7.33;7.00;;;;;-147.17;100.00;-15917.19;5024304;28;51102;-58
2023/02/18 00:36:38;;;;;;;;;8.67;8.00;;;;;-147.17;100.00;-15917.19;5020639;28;52002;-59
2023/02/18 00:39:07;;;;;;;;;8.00;8.00;;;;;-147.17;100.00;-15917.19;5018490;28;51007;-60
2023/02/18 00:41:34;;;;;;;;;9.00;8.67;;;;;-147.17;100.00;-15917.19;5025751;28;51174;-58
2023/02/18 00:44:00;;;;;;;;;7.67;7.67;;;;;-147.17;100.00;-15917.19;5024000;28;51003;-58
2023/02/18 00:46:25;;;;;;;;;7.33;6.67;;;;;-147.17;100.00;-15917.19;5016779;28;52021;-58
2023/02/18 00:48:51;;;;;;;;;7.33;6.67;;;;;-147.17;100.00;-15917.19;5019526;28;51117;-58
2023/02/18 00:51:17;;;;;;;;;10.33;10.00;;;;;-147.17;100.00;-15917.19;5022059;28;51151;-58
2023/02/18 00:53:42;;;;;;;;;7.00;7.00;;;;;-147.17;100.00;-15917.19;5026088;28;51352;-58
2023/02/18 00:56:08;;;;;;;;;10.00;10.00;;;;;-147.17;100.00;-15917.19;5011853;28;52302;-58
2023/02/18 00:58:34;;;;;;;;;8.00;8.00;;;;;-147.17;100.00;-15917.19;5018568;28;50872;-57
2023/02/18 01:01:00;;;;;;;;;9.00;9.00;;;;;-147.17;100.00;-15917.19;5006027;28;51258;-59
2023/02/18 01:03:26;;;;;;;;;11.00;10.00;;;;;-147.17;100.00;-15917.19;5013352;28;51252;-59
2023/02/18 01:05:51;;;;;;;;;10.33;10.33;;;;;-147.17;100.00;-15917.19;5020946;28;51795;-57
2023/02/18 01:08:18;;;;;;;;;10.00;10.00;;;;;-147.17;100.00;-15917.19;5020359;28;50983;-58
2023/02/18 01:10:46;;;;;;;;;13.00;12.33;;;;;-147.17;100.00;-15917.19;5020988;28;51385;-58
2023/02/18 01:13:13;;;;;;;;;10.00;10.00;;;;;-147.17;100.00;-15917.19;5023431;28;50954;-59
2023/02/18 01:15:39;;;;;;;;;9.00;9.00;;;;;-147.17;100.00;-15917.19;5011881;28;51759;-58
2023/02/18 01:18:06;;;;;;;;;8.67;8.67;;;;;-147.17;100.00;-15917.19;5011938;28;51225;-59
2023/02/18 01:20:33;;;;;;;;;9.00;8.33;;;;;-147.17;100.00;-15917.19;5026653;28;50886;-59
2023/02/18 01:22:59;;;;;;;;;9.67;8.00;;;;;-147.17;100.00;-15917.19;5023132;28;51278;-58
2023/02/18 01:25:24;;;;;;;;;8.00;8.00;;;;;-147.17;100.00;-15917.19;5023540;28;51847;-60
2023/02/18 01:27:49;;;;;;;;;9.33;9.33;;;;;-147.17;100.00;-15917.19;5005934;28;52804;-59
2023/02/18 01:30:16;;;;;;;;;10.67;9.67;;;;;-147.17;100.00;-15917.19;5013006;28;51599;-58
2023/02/18 01:32:42;;;;;;;;;7.33;7.33;;;;;-147.17;100.00;-15917.19;5023289;28;51219;-59
2023/02/18 01:35:12;;;;;;;;;10.67;10.67;;;;;-147.17;100.00;-15917.19;5012920;28;51927;-58
2023/02/18 01:37:38;;;;;;;;;9.67;9.33;;;;;-147.17;100.00;-15917.19;5023331;28;51029;-59
2023/02/18 01:40:05;;;;;;;;;9.33;8.67;;;;;-147.17;100.00;-15917.19;5023980;28;51604;-58
2023/02/18 01:42:30;;;;;;;;;5.00;5.00;;;;;-147.17;100.00;-15917.19;5014118;28;51462;-59
2023/02/18 01:45:33;;;;;;;;;8.00;8.00;;;;;-147.17;100.00;-15917.19;5011343;28;52821;-59
2023/02/18 01:48:03;;;;;;;;;10.67;9.67;;;;;-147.17;100.00;-15917.19;5011503;28;51120;-58
2023/02/18 01:50:29;;;;;;;;;8.00;8.00;;;;;-147.17;100.00;-15917.19;5026274;28;51356;-57
2023/02/18 01:52:54;;;;;;;;;11.33;10.00;;;;;-147.17;100.00;-15917.19;5017689;28;51030;-58
2023/02/18 01:55:20;;;;;;;;;11.33;11.33;;;;;-147.17;100.00;-15917.19;5017550;28;52801;-58
2023/02/18 01:57:45;;;;;;;;;8.33;7.67;;;;;-147.17;100.00;-15917.19;5012799;28;51213;-57
2023/02/18 02:00:14;;;;;;;;;11.00;10.25;;;;;-147.17;100.00;-15917.19;5015990;28;51129;-58
2023/02/18 02:02:44;;;;;;;;;10.25;9.50;;;;;-147.17;100.00;-15917.19;5015543;28;51337;-58
2023/02/18 02:05:09;;;;;;;;;8.75;8.75;;;;;-147.17;100.00;-15917.19;5024147;28;51840;-59
2023/02/18 02:07:35;;;;;;;;;9.75;9.00;;;;;-147.17;100.00;-15917.19;5021828;28;51170;-59
2023/02/18 02:10:01;;;;;;;;;9.75;9.00;;;;;-147.17;100.00;-15917.19;5016668;28;50942;-59
2023/02/18 02:13:09;;;;;;;;;9.00;9.00;;;;;-147.17;100.00;-15917.19;5030297;28;51348;-58
2023/02/18 02:15:52;;;;;;;;;8.33;8.00;;;;;-147.17;100.00;-15917.19;5031099;28;52259;-58
2023/02/18 02:18:23;;;;;;;;;10.75;10.00;;;;;-147.17;100.00;-15917.19;5031503;28;51015;-58
2023/02/18 02:21:23;;;;;;;;;7.00;6.67;;;;;-147.17;100.00;-15917.19;5005793;28;51103;-57
2023/02/18 02:24:16;;;;;;;;;10.67;9.00;;;;;-147.17;100.00;-15917.19;5020233;28;51117;-58
2023/02/18 02:27:03;;;;;;;;;9.33;7.67;;;;;-147.17;100.00;-15917.19;5014722;28;53214;-58
2023/02/18 02:29:34;;;;;;;;;9.67;8.00;;;;;-147.17;100.00;-15917.19;5023025;28;51150;-59
2023/02/18 02:32:24;;;;;;;;;7.67;7.67;;;;;-147.17;100.00;-15917.19;5024758;28;51141;-58
2023/02/18 02:35:10;;;;;;;;;7.00;6.33;;;;;-147.17;100.00;-15917.19;5022684;28;51327;-58
2023/02/18 02:37:38;;;;;;;;;9.00;8.00;;;;;-147.17;100.00;-15917.19;5010034;28;52081;-58
2023/02/18 02:40:33;;;;;;;;;8.33;7.33;;;;;-147.17;100.00;-15917.19;5015043;28;50963;-58
2023/02/18 02:43:16;;;;;;;;;10.00;8.33;;;;;-147.17;100.00;-15917.19;5016950;28;51130;-59
2023/02/18 02:46:02;;;;;;;;;6.33;6.33;;;;;-147.17;100.00;-15917.19;5024257;28;51310;-59
2023/02/18 02:48:46;;;;;;;;;6.67;6.67;;;;;-147.17;100.00;-15917.19;5015738;28;51871;-59
2023/02/18 02:51:11;;;;;;;;;7.33;7.00;;;;;-147.17;100.00;-15917.19;5015841;28;51433;-59
2023/02/18 02:53:40;;;;;;;;;9.33;8.67;;;;;-147.17;100.00;-15917.19;5026289;28;50996;-58
2023/02/18 02:56:05;;;;;;;;;6.67;6.67;;;;;-147.17;100.00;-15917.19;5028814;28;51129;-58
2023/02/18 02:58:31;;;;;;;;;7.67;7.67;;;;;-147.17;100.00;-15917.19;5022873;28;51986;-58
2023/02/18 03:01:19;;;;;;;;;8.33;8.33;;;;;-147.17;100.00;-15917.19;5027955;28;52697;-58
2023/02/18 03:04:22;;;;;;;;;10.00;8.33;;;;;-147.17;100.00;-15917.19;5014517;28;51219;-58
2023/02/18 03:06:48;;;;;;;;;7.67;7.67;;;;;-147.17;100.00;-15917.19;5023291;28;51272;-58
2023/02/18 03:09:44;;;;;;;;;7.00;7.00;;;;;-147.17;100.00;-15917.19;5023732;28;51041;-58
2023/02/18 03:12:45;;;;;;;;;8.00;8.00;;;;;-147.17;100.00;-15917.19;5018651;28;51026;-58
2023/02/18 03:15:19;;;;;;;;;8.00;7.33;;;;;-147.17;100.00;-15917.19;5021279;28;51138;-58
2023/02/18 03:18:31;;;;;;;;;7.67;7.67;;;;;-147.17;100.00;-15917.19;5031271;28;50970;-59
2023/02/18 03:21:05;;;;;;;;;8.00;7.33;;;;;-147.17;100.00;-15917.19;4989134;28;53809;-57
2023/02/18 03:23:52;;;;;;;;;8.00;7.00;;;;;-147.17;100.00;-15917.19;5022105;28;50926;-57
2023/02/18 03:26:19;;;;;;;;;8.00;7.00;;;;;-147.17;100.00;-15917.19;5017638;28;51108;-57
2023/02/18 03:28:48;;;;;;;;;7.00;7.00;;;;;-147.17;100.00;-15917.19;5034240;28;51027;-59
2023/02/18 03:31:22;;;;;;;;;8.33;7.00;;;;;-147.17;100.00;-15917.19;5017467;28;51102;-58
2023/02/18 03:34:19;;;;;;;;;7.00;7.00;;;;;-147.17;100.00;-15917.19;5033008;28;50880;-58
2023/02/18 03:36:45;;;;;;;;;8.00;8.00;;;;;-147.17;100.00;-15917.19;5012370;28;51015;-58
2023/02/18 03:39:14;;;;;;;;;8.00;8.00;;;;;-147.17;100.00;-15917.19;5015604;28;51379;-58
2023/02/18 03:41:40;;;;;;;;;8.00;8.00;;;;;-147.17;100.00;-15917.19;5022378;28;50935;-58
2023/02/18 03:44:08;;;;;;;;;8.33;8.33;;;;;-147.17;100.00;-15917.19;5018676;28;51070;-57
2023/02/18 03:46:35;;;;;;;;;10.00;9.00;;;;;-147.17;100.00;-15917.19;5020096;28;51307;-58
2023/02/18 03:49:01;;;;;;;;;8.67;8.33;;;;;-147.17;100.00;-15917.19;5030439;28;51125;-57
2023/02/18 03:51:27;;;;;;;;;7.00;7.00;;;;;-147.17;100.00;-15917.19;5015780;28;51077;-58
2023/02/18 03:53:52;;;;;;;;;8.33;8.33;;;;;-147.17;100.00;-15917.19;5015297;28;51097;-58
2023/02/18 03:56:18;;;;;;;;;8.67;7.00;;;;;-147.17;100.00;-15917.19;5015017;28;51326;-58
2023/02/18 03:58:44;;;;;;;;;7.33;7.33;;;;;-147.17;100.00;-15917.19;5032383;28;51173;-58
2023/02/18 04:01:09;;;;;;;;;9.00;7.67;;;;;-147.17;100.00;-15917.19;5027753;28;51257;-58
2023/02/18 04:03:34;;;;;;;;;8.67;8.67;;;;;-147.17;100.00;-15917.19;5016832;28;52600;-58
2023/02/18 04:06:00;;;;;;;;;8.00;7.00;;;;;-147.17;100.00;-15917.19;5020180;28;51271;-58
2023/02/18 04:08:25;;;;;;;;;8.00;7.67;;;;;-147.17;100.00;-15917.19;5016030;28;51319;-58
2023/02/18 04:10:51;;;;;;;;;6.00;6.00;;;;;-147.17;100.00;-15917.19;5018965;28;52911;-57
2023/02/18 04:13:17;;;;;;;;;8.00;7.67;;;;;-147.17;100.00;-15917.19;5030690;28;51108;-58
2023/02/18 04:15:43;;;;;;;;;7.33;7.33;;;;;-147.17;100.00;-15917.19;5022213;28;50841;-58
2023/02/18 04:18:09;;;;;;;;;8.00;8.00;;;;;-147.17;100.00;-15917.19;5026629;28;51058;-57
2023/02/18 04:20:36;;;;;;;;;8.67;8.00;;;;;-147.17;100.00;-15917.19;5012425;28;52605;-57
2023/02/18 04:23:01;;;;;;;;;9.00;7.67;;;;;-147.17;100.00;-15917.19;5016698;28;51104;-57
2023/02/18 04:25:27;;;;;;;;;9.00;9.00;;;;;-147.17;100.00;-15917.19;5013447;28;51205;-57
2023/02/18 04:27:52;;;;;;;;;6.00;6.00;;;;;-147.17;100.00;-15917.19;5026213;28;51332;-59
2023/02/18 04:30:17;;;;;;;;;9.67;9.67;;;;;-147.17;100.00;-15917.19;5025409;28;51862;-59
2023/02/18 04:32:43;;;;;;;;;7.00;7.00;;;;;-147.17;100.00;-15917.19;5029348;28;51172;-59
2023/02/18 04:35:08;;;;;;;;;8.00;8.00;;;;;-147.17;100.00;-15917.19;5018300;28;51314;-59
2023/02/18 04:37:33;;;;;;;;;8.00;7.00;;;;;-147.17;100.00;-15917.19;5014499;28;51149;-58
2023/02/18 04:39:59;;;;;;;;;6.00;6.00;;;;;-147.17;100.00;-15917.19;5029492;28;50999;-59
2023/02/18 04:42:24;;;;;;;;;7.00;7.00;;;;;-147.17;100.00;-15917.19;5012976;28;51277;-58
2023/02/18 04:44:50;;;;;;;;;7.00;7.00;;;;;-147.17;100.00;-15917.19;5013130;28;51264;-58
2023/02/18 04:47:15;;;;;;;;;9.00;8.00;;;;;-147.17;100.00;-15917.19;5020283;28;51167;-58
2023/02/18 04:49:40;;;;;;;;;6.33;6.33;;;;;-147.17;100.00;-15917.19;5026471;28;51617;-57
2023/02/18 04:52:06;;;;;;;;;7.00;7.00;;;;;-147.17;100.00;-15917.19;5024880;28;51134;-63
2023/02/18 04:54:31;;;;;;;;;8.00;7.00;;;;;-147.17;100.00;-15917.19;5012880;28;51096;-58
2023/02/18 04:56:56;;;;;;;;;6.33;5.67;;;;;-147.17;100.00;-15917.19;5030833;28;51011;-59
2023/02/18 04:59:22;;;;;;;;;8.00;7.00;;;;;-147.17;100.00;-15917.19;5030378;28;50915;-59
2023/02/18 05:01:48;;;;;;;;;6.00;6.00;;;;;-147.17;100.00;-15917.19;5021736;28;52743;-59
2023/02/18 05:04:13;;;;;;;;;9.00;8.33;;;;;-147.17;100.00;-15917.19;5024097;28;51245;-59
2023/02/18 05:06:38;;;;;;;;;8.33;8.00;;;;;-147.17;100.00;-15917.19;5014104;28;50983;-58
2023/02/18 05:09:05;;;;;;;;;7.00;6.67;;;;;-147.17;100.00;-15917.19;5021011;28;52631;-59
2023/02/18 05:11:30;;;;;;;;;7.00;7.00;;;;;-147.17;100.00;-15917.19;5021160;28;53229;-58
2023/02/18 05:13:56;;;;;;;;;5.00;5.00;;;;;-147.17;100.00;-15917.19;5012374;28;50980;-58
2023/02/18 05:16:21;;;;;;;;;6.00;6.00;;;;;-147.17;100.00;-15917.19;5026591;28;51364;-59
2023/02/18 05:18:46;;;;;;;;;7.67;5.33;;;;;-147.17;100.00;-15917.19;4999465;28;51717;-59
2023/02/18 05:21:12;;;;;;;;;7.00;6.33;;;;;-147.17;100.00;-15917.19;5027913;28;51168;-58
2023/02/18 05:23:37;;;;;;;;;8.00;8.00;;;;;-147.17;100.00;-15917.19;5018343;28;51136;-58
2023/02/18 05:26:03;;;;;;;;;6.33;5.67;;;;;-147.17;100.00;-15917.19;5023506;28;51081;-59
2023/02/18 05:28:29;;;;;;;;;11.00;9.00;;;;;-147.17;100.00;-15917.19;5024211;28;52198;-60
2023/02/18 05:30:54;;;;;;;;;6.33;6.33;;;;;-147.17;100.00;-15917.19;5014108;28;51306;-57
2023/02/18 05:33:19;;;;;;;;;5.00;5.00;;;;;-147.17;100.00;-15917.19;5012330;28;51339;-58
2023/02/18 05:35:45;;;;;;;;;8.33;7.00;;;;;-147.17;100.00;-15917.19;5022013;28;50945;-57
2023/02/18 05:38:10;;;;;;;;;7.00;6.67;;;;;-147.17;100.00;-15917.19;5022999;28;51656;-58
2023/02/18 05:40:37;;;;;;;;;7.00;6.00;;;;;-147.17;100.00;-15917.19;5025911;28;51127;-58
2023/02/18 05:43:05;;;;;;;;;7.67;6.00;;;;;-147.17;100.00;-15917.19;5015147;28;51189;-58
2023/02/18 05:45:30;;;;;;;;;9.00;8.00;;;;;-147.17;100.00;-15917.19;5017545;28;51155;-57
2023/02/18 05:47:56;;;;;;;;;7.00;7.00;;;;;-147.17;100.00;-15917.19;5021701;28;51157;-58
2023/02/18 05:50:21;;;;;;;;;6.67;6.00;;;;;-147.17;100.00;-15917.19;5015314;28;51170;-57
2023/02/18 05:52:47;;;;;;;;;5.00;5.00;;;;;-147.17;100.00;-15917.19;5018263;28;51169;-59
2023/02/18 05:55:12;;;;;;;;;7.00;7.00;;;;;-147.17;100.00;-15917.19;5031898;28;51485;-57
2023/02/18 05:57:38;;;;;;;;;6.33;5.67;;;;;-147.17;100.00;-15917.19;5020233;28;51575;-57
2023/02/18 06:00:05;;;;;;;;;7.00;7.00;;;;;-147.17;100.00;-15917.19;5019597;28;51066;-58
2023/02/18 06:02:30;;;;;;;;;6.33;6.33;;;;;-147.17;100.00;-15917.19;5011942;28;51130;-57
2023/02/18 06:04:56;;;;;;;;;6.00;6.00;;;;;-147.17;100.00;-15917.19;5021001;28;51118;-58
2023/02/18 06:07:21;;;;;;;;;7.67;7.00;;;;;-147.17;100.00;-15917.19;5031032;28;51734;-58
2023/02/18 06:09:47;;;;;;;;;8.67;7.67;;;;;-147.17;100.00;-15917.19;5035080;28;51086;-59
2023/02/18 06:12:12;;;;;;;;;9.00;9.00;;;;;-147.17;100.00;-15917.19;5010071;28;51058;-58
2023/02/18 06:14:40;;;;;;;;;8.00;8.00;;;;;-147.17;100.00;-15917.19;5020406;28;51261;-58
2023/02/18 06:17:10;;;;;;;;;6.00;6.00;;;;;-147.17;100.00;-15917.19;5002866;28;52813;-58
2023/02/18 06:19:35;;;;;;;;;5.33;5.33;;;;;-147.17;100.00;-15917.19;5019553;28;51122;-58
2023/02/18 06:22:01;;;;;;;;;6.33;6.00;;;;;-147.17;100.00;-15917.19;5019652;28;51161;-59
2023/02/18 06:24:26;;;;;;;;;7.00;7.00;;;;;-147.17;100.00;-15917.19;5029703;28;51220;-59
2023/02/18 06:26:51;;;;;;;;;8.00;7.33;;;;;-147.17;100.00;-15917.19;5016419;28;50936;-58
2023/02/18 06:29:17;;;;;;;;;7.00;6.00;;;;;-147.17;100.00;-15917.19;5026128;28;51093;-58
2023/02/18 06:31:42;;;;;;;;;6.33;6.33;;;;;-147.17;100.00;-15917.19;5029461;28;51126;-58
2023/02/18 06:34:07;;;;;;;;;7.67;7.33;;;;;-147.17;100.00;-15917.19;5027178;28;51227;-58
2023/02/18 06:36:33;;;;;;;;;8.00;7.33;;;;;-147.17;100.00;-15917.19;5026084;28;51095;-58
2023/02/18 06:38:58;;;;;;;;;6.00;6.00;;;;;-147.17;100.00;-15917.19;5030074;28;51222;-59
2023/02/18 06:41:24;;;;;;;;;10.67;8.00;;;;;-147.17;100.00;-15917.19;5023579;28;50951;-58
2023/02/18 06:43:50;;;;;;;;;6.00;6.00;;;;;-147.17;100.00;-15917.19;5022835;28;51437;-58
2023/02/18 06:46:15;;;;;;;;;7.00;7.00;;;;;-147.17;100.00;-15917.19;5030098;28;51794;-58
2023/02/18 06:48:40;;;;;;;;;7.33;7.33;;;;;-147.17;100.00;-15917.19;5032781;28;51054;-58
2023/02/18 06:51:06;;;;;;;;;7.00;7.00;;;;;-147.17;100.00;-15917.19;5013335;28;50994;-58
2023/02/18 06:53:31;;;;;;;;;7.00;7.00;;;;;-147.17;100.00;-15917.19;5021351;28;51255;-58
2023/02/18 06:55:57;;;;;;;;;6.67;6.67;;;;;-147.17;100.00;-15917.19;5032535;28;51203;-58
2023/02/18 06:58:22;;;;;;;;;7.00;7.00;;;;;-147.17;100.00;-15917.19;5034566;28;50970;-58
2023/02/18 07:00:48;;;;;;;;;7.00;7.00;;;;;-147.17;100.00;-15917.19;5021082;28;51150;-59
2023/02/18 07:03:14;;;;;;;;;9.00;8.00;;;;;-147.17;100.00;-15917.19;5031974;28;51420;-57
2023/02/18 07:05:40;;;;;;;;;5.67;5.00;;;;;-147.17;100.00;-15917.19;5015745;28;52174;-58
2023/02/18 07:08:05;;;;;;;;;6.00;6.00;;;;;-147.17;100.00;-15917.19;5023254;28;51063;-58
2023/02/18 07:10:31;;;;;;;;;9.00;8.00;;;;;-147.17;100.00;-15917.19;5031055;28;51207;-58
2023/02/18 07:12:56;;;;;;;;;5.00;5.00;;;;;-147.17;100.00;-15917.19;5021669;28;50913;-58
2023/02/18 07:15:23;;;;;;;;;5.67;4.33;;;;;-147.17;100.00;-15917.19;5017505;28;51144;-58
2023/02/18 07:17:50;;;;;;;;;6.00;6.00;;;;;-147.17;100.00;-15917.19;5032246;28;51126;-58
2023/02/18 07:20:16;;;;;;;;;5.33;4.67;;;;;-147.17;100.00;-15917.19;5023663;28;51390;-58
2023/02/18 07:22:41;;;;;;;;;8.67;6.00;;;;;-147.17;100.00;-15917.19;5013741;28;51320;-58
2023/02/18 07:25:07;;;;;;;;;7.00;6.00;;;;;-147.17;100.00;-15917.19;5012636;28;51929;-58
2023/02/18 07:27:33;;;;;;;;;6.50;6.00;;;;;-147.17;100.00;-15917.19;5013664;28;51184;-58
2023/02/18 07:29:58;;;;;;;;;6.33;6.33;;;;;-147.17;100.00;-15917.19;5013909;28;51074;-59
2023/02/18 07:32:23;;;;;;;;;6.67;5.67;;;;;-147.17;100.00;-15917.19;5014476;28;51346;-59
2023/02/18 07:34:51;;;;;;;;;4.67;4.67;;;;;-147.17;100.00;-15917.19;5021549;28;51765;-59
2023/02/18 07:37:17;;;;;;;;;7.00;6.00;;;;;-147.17;100.00;-15917.19;5018274;28;50990;-58
2023/02/18 07:39:43;;;;;;;;;5.33;5.33;;;;;-147.17;100.00;-15917.19;5026050;28;51183;-58
2023/02/18 07:42:10;;;;;;;;;7.00;6.67;;;;;-147.17;100.00;-15917.19;5015272;28;51466;-58
2023/02/18 07:44:36;;;;;;;;;4.00;3.00;;;;;-147.17;100.00;-15917.19;5017069;28;54350;-58
2023/02/18 07:47:04;;;;;;;;;5.00;5.00;;;;;-147.17;100.00;-15917.19;5023550;28;51142;-58
2023/02/18 07:49:29;;;;;;;;;5.00;5.00;;;;;-147.17;100.00;-15917.19;5014178;28;51214;-59
2023/02/18 07:51:55;;;;;;;;;4.00;4.00;;;;;-147.17;100.00;-15917.19;5017028;28;51284;-59
2023/02/18 07:54:20;;;;;;;;;5.00;5.00;;;;;-147.17;100.00;-15917.19;5012478;28;51327;-59
2023/02/18 07:56:46;;;;;;;;;5.33;5.00;;;;;-147.17;100.00;-15917.19;5025138;28;51234;-59
2023/02/18 07:59:12;;;;;;;;;4.00;4.00;;;;;-147.17;100.00;-15917.19;5032009;28;51359;-59
2023/02/18 08:01:38;;;;;;;;;3.00;3.00;;;;;-147.17;100.00;-15917.19;5023858;28;51471;-58
2023/02/18 08:04:04;;;;;;;;;4.00;4.00;;;;;-147.17;100.00;-15917.19;5031955;28;52375;-58
2023/02/18 08:06:35;;;;;;;;;2.00;2.00;;;;;-147.17;100.00;-15917.19;5021593;28;51033;-58
2023/02/18 08:09:01;;;;;;;;;4.00;3.00;;;;;-147.17;100.00;-15917.19;5010231;28;51263;-58
2023/02/18 08:11:26;;;;;;;;;2.00;2.00;;;;;-147.17;100.00;-15917.19;5022054;28;51330;-58
2023/02/18 08:13:52;;;;;;;;;3.00;3.00;;;;;-147.17;100.00;-15917.19;5024316;28;51338;-58
2023/02/18 08:16:19;;;;;;;;;4.00;4.00;;;;;-147.17;100.00;-15917.19;5004864;28;51102;-58
2023/02/18 08:18:46;;;;;;;;;3.67;3.00;;;;;-147.17;100.00;-15917.19;5019650;28;51294;-60
2023/02/18 08:21:12;;;;;;;;;4.00;3.67;;;;;-147.17;100.00;-15917.19;5010812;28;51291;-60
2023/02/18 08:23:38;;;;;;;;;2.00;2.00;;;;;-147.17;100.00;-15917.19;5014209;28;51123;-58
2023/02/18 08:26:04;;;;;;;;;3.00;3.00;;;;;-147.17;100.00;-15917.19;5029499;28;51241;-58
2023/02/18 08:28:29;;;;;;;;;3.00;2.00;;;;;-147.17;100.00;-15917.19;4998658;28;51206;-59
2023/02/18 08:30:54;;;;;;;;;1.00;1.00;;;;;-147.17;100.00;-15917.19;5023013;28;51069;-58
2023/02/18 08:33:22;;;;;;;;;2.33;1.67;;;;;-147.17;100.00;-15917.19;5003908;28;53109;-58
2023/02/18 08:35:49;;;;;;;;;1.00;1.00;;;;;-147.17;100.00;-15917.19;5029744;28;51057;-58
2023/02/18 08:38:15;;;;;;;;;4.00;3.00;;;;;-147.17;100.00;-15917.19;5030668;28;51202;-59
2023/02/18 08:40:41;;;;;;;;;5.00;5.00;;;;;-147.17;100.00;-15917.19;5027229;28;52163;-58
2023/02/18 08:43:06;;;;;;;;;3.00;3.00;;;;;-147.17;100.00;-15917.19;5019448;28;52106;-58
2023/02/18 08:45:38;;;;;;;;;3.00;3.00;;;;;-147.17;100.00;-15917.19;5021168;28;51188;-59
2023/02/18 08:48:05;;;;;;;;;2.00;2.00;;;;;-147.17;100.00;-15917.19;5019222;28;51172;-60
2023/02/18 08:50:31;;;;;;;;;3.00;3.00;;;;;-147.17;100.00;-15917.19;5021292;28;51312;-59
2023/02/18 08:52:59;;;;;;;;;3.33;3.33;;;;;-147.17;100.00;-15917.19;5027304;28;52090;-59
2023/02/18 08:55:25;;;;;;;;;2.00;1.33;;;;;-147.17;100.00;-15917.19;5018562;28;50962;-58
2023/02/18 08:57:51;;;;;;;;;4.00;4.00;;;;;-147.17;100.00;-15917.19;5022180;28;51180;-58
2023/02/18 09:00:17;;;;;;;;;3.33;3.00;;;;;-147.17;100.00;-15917.19;5019462;28;51209;-58
2023/02/18 09:02:42;;;;;;;;;3.00;3.00;;;;;-147.17;100.00;-15917.19;5021101;28;51209;-58
2023/02/18 09:05:08;;;;;;;;;5.00;5.00;;;;;-147.17;100.00;-15917.19;5006049;28;51118;-59
2023/02/18 09:07:34;;;;;;;;;4.00;3.33;;;;;-147.17;100.00;-15917.19;5012790;28;51110;-58
2023/02/18 09:10:00;;;;;;;;;1.67;1.67;;;;;-147.17;100.00;-15917.19;5028798;28;51002;-58
2023/02/18 09:12:26;;;;;;;;;1.67;1.00;;;;;-147.17;100.00;-15917.19;5023571;28;51697;-58
2023/02/18 09:14:52;;;;;;;;;2.00;2.00;;;;;-147.17;100.00;-15917.19;5022708;28;51181;-59
2023/02/18 09:17:17;;;;;;;;;3.33;3.33;;;;;-147.17;100.00;-15917.19;5031077;28;51008;-58
2023/02/18 09:19:43;;;;;;;;;3.00;2.33;;;;;-147.17;100.00;-15917.19;5031102;28;50903;-57
2023/02/18 09:22:08;;;;;;;;;4.00;4.00;;;;;-147.17;100.00;-15917.19;5034664;28;51859;-59
2023/02/18 09:24:38;;;;;;;;;1.00;1.00;;;;;-147.17;100.00;-15917.19;5018463;28;51259;-58
2023/02/18 09:27:04;;;;;;;;;1.00;1.00;;;;;-147.17;100.00;-15917.19;5018512;28;51122;-57
2023/02/18 09:29:31;;;;;;;;;2.00;1.33;;;;;-147.17;100.00;-15917.19;5019590;28;52464;-60
2023/02/18 09:32:00;;;;;;;;;8.00;7.00;;;;;-147.17;100.00;-15917.19;5020056;28;51148;-58
2023/02/18 09:34:25;;;;;;;;;4.00;4.00;;;;;-147.17;100.00;-15917.19;5024622;28;51131;-58
2023/02/18 09:36:51;;;;;;;;;6.00;6.00;;;;;-147.17;100.00;-15917.19;5009055;28;51211;-59
2023/02/18 09:39:16;;;;;;;;;3.00;3.00;;;;;-147.17;100.00;-15917.19;5023075;28;51218;-58
2023/02/18 09:41:46;;;;;;;;;3.00;3.00;;;;;-147.17;100.00;-15917.19;5009950;28;53724;-59
2023/02/18 09:44:18;;;;;;;;;3.00;3.00;;;;;-147.17;100.00;-15917.19;5031575;28;51183;-58
2023/02/18 09:46:59;;;;;;;;;3.00;2.33;;;;;-147.17;100.00;-15917.19;5018774;28;51347;-58
2023/02/18 09:49:27;;;;;;;;;3.00;3.00;;;;;-147.17;100.00;-15917.19;5026629;28;51216;-58
2023/02/18 09:51:55;;;;;;;;;3.00;2.00;;;;;-147.17;100.00;-15917.19;5028729;28;52031;-58
2023/02/18 09:54:21;;;;;;;;;6.00;6.00;;;;;-147.17;100.00;-15917.19;5012811;28;51082;-57
2023/02/18 09:56:48;;;;;;;;;4.33;4.33;;;;;-147.17;100.00;-15917.19;5028053;28;51059;-58
2023/02/18 09:59:20;;;;;;;;;4.00;3.00;;;;;-147.17;100.00;-15917.19;5012574;28;51941;-58
2023/02/18 10:01:50;;;;;;;;;5.33;5.00;;;;;-147.17;100.00;-15917.19;5025259;28;51390;-59
2023/02/18 10:04:17;;;;;;;;;3.00;3.00;;;;;-147.17;100.00;-15917.19;5009051;28;51090;-57
2023/02/18 10:06:44;;;;;;;;;4.00;4.00;;;;;-147.17;100.00;-15917.19;5027271;28;51075;-59
2023/02/18 10:09:37;;;;;;;;;3.00;1.00;;;;;-147.17;100.00;-15917.19;5019539;28;51266;-59
2023/02/18 10:12:19;;;;;;;;;3.00;1.00;;;;;-147.17;100.00;-15917.19;5016822;28;51863;-57
2023/02/18 10:14:50;;;;;;;;;3.00;3.00;;;;;-147.17;100.00;-15917.19;5017475;28;51143;-57
2023/02/18 10:17:17;;;;;;;;;2.33;2.00;;;;;-147.17;100.00;-15917.19;5023539;28;51157;-59
2023/02/18 10:19:46;;;;;;;;;3.00;2.00;;;;;-147.17;100.00;-15917.19;5019882;28;51163;-58
2023/02/18 10:22:13;;;;;;;;;3.00;3.00;;;;;-147.17;100.00;-15917.19;5022260;28;52496;-57
2023/02/18 10:24:48;;;;;;;;;3.00;3.00;;;;;-147.17;100.00;-15917.19;5014753;28;51035;-57
2023/02/18 10:27:22;;;;;;;;;3.00;3.00;;;;;-147.17;100.00;-15917.19;5010447;28;51564;-59
2023/02/18 10:29:48;;;;;;;;;2.33;2.33;;;;;-147.17;100.00;-15917.19;5027419;28;51115;-59
2023/02/18 10:32:30;;;;;;;;;4.00;4.00;;;;;-147.17;100.00;-15917.19;5022938;28;51220;-59
2023/02/18 10:35:05;;;;;;;;;2.00;2.00;;;;;-147.17;100.00;-15917.19;5010940;28;51229;-60
2023/02/18 10:37:34;;;;;;;;;3.00;3.00;;;;;-147.17;100.00;-15917.19;5025919;28;51013;-61
2023/02/18 10:40:42;;;;;;;;;5.33;5.00;;;;;-147.17;100.00;-15917.19;5034357;28;50994;-60
2023/02/18 10:43:10;;;;;;;;;4.00;2.67;;;;;-147.17;100.00;-15917.19;4981405;28;51989;-60
2023/02/18 10:46:08;;;;;;;;;1.33;1.00;;;;;-147.17;100.00;-15917.19;5033450;28;51129;-60
2023/02/18 10:49:12;;;;;;;;;1.67;1.67;;;;;-147.17;100.00;-15917.19;5029486;28;51125;-59
2023/02/18 10:51:47;;;;;;;;;2.00;2.00;;;;;-147.17;100.00;-15917.19;5014460;28;51205;-59
2023/02/18 10:54:14;;;;;;;;;5.33;5.33;;;;;-147.17;100.00;-15917.19;5023375;28;50932;-59
2023/02/18 10:56:45;;;;;;;;;3.00;2.67;;;;;-147.17;100.00;-15917.19;5013713;28;51207;-60
2023/02/18 10:59:21;;;;;;;;;4.67;3.67;;;;;-147.17;100.00;-15917.19;5021186;28;51112;-60
2023/02/18 11:01:58;;;;;;;;;3.00;3.00;;;;;-147.17;100.00;-15917.19;5013193;28;51383;-59
2023/02/18 11:04:39;;;;;;;;;2.00;2.00;;;;;-147.17;100.00;-15917.19;5030870;28;51968;-59
2023/02/18 11:07:20;;;;;;;;;2.00;1.67;;;;;-147.17;100.00;-15917.19;5014575;28;51007;-60